Time;durP1;ratioP1;P1;durP2;ratioP2;P2;SDS_P1;SDS_P2;PMS_P1;PMS_P2;Temp;Humidity;BMP_temperature;BMP_pressure;BME280_temperature;BME280_humidity;BME280_pressure;Samples;Min_cycle;Max_cycle;Signal;HPM_P1;HPM_P2
2022/02/27 00:11:57;;;;;;;5.57;3.00;;;;;;;18.26;47.59;98883.78;5568098;22;20784;-87
2022/02/27 00:14:23;;;;;;;5.63;3.10;;;;;;;18.10;47.86;98858.16;5006649;28;20197;-86
2022/02/27 00:16:50;;;;;;;5.03;3.00;;;;;;;18.13;47.57;98866.00;5034229;28;20267;-86
2022/02/27 00:19:17;;;;;;;4.83;3.10;;;;;;;18.01;47.63;98843.22;5017745;28;20221;-87
2022/02/27 00:21:43;;;;;;;5.33;3.03;;;;;;;18.10;47.72;98859.06;5017336;28;20296;-86
2022/02/27 00:24:12;;;;;;;3.93;2.53;;;;;;;18.04;47.65;98851.03;5018377;28;20266;-86
2022/02/27 00:26:39;;;;;;;5.47;2.73;;;;;;;17.82;47.87;98799.56;5034134;28;20248;-90
2022/02/27 00:29:06;;;;;;;11.10;3.00;;;;;;;17.73;47.43;98790.47;5017165;28;20290;-86
2022/02/27 00:31:32;;;;;;;5.33;3.20;;;;;;;18.18;47.54;98873.13;5049853;28;20682;-86
2022/02/27 00:33:59;;;;;;;4.27;2.87;;;;;;;18.26;47.46;98873.59;5020842;28;20284;-83
2022/02/27 00:36:26;;;;;;;5.10;2.90;;;;;;;18.24;47.64;98868.41;5021764;28;20233;-88
2022/02/27 00:38:52;;;;;;;4.80;2.80;;;;;;;18.15;47.55;98861.91;4998605;28;20256;-86
2022/02/27 00:41:20;;;;;;;4.20;3.00;;;;;;;17.80;47.57;98796.03;4998163;28;20546;-86
2022/02/27 00:43:46;;;;;;;3.07;2.43;;;;;;;17.98;47.19;98817.56;4998460;28;20289;-87
2022/02/27 00:46:13;;;;;;;5.30;3.13;;;;;;;17.64;47.30;98755.16;5014836;28;20281;-84
2022/02/27 00:48:40;;;;;;;4.83;3.00;;;;;;;18.15;47.21;98849.16;4997823;28;20291;-86
2022/02/27 00:51:06;;;;;;;4.57;2.20;;;;;;;17.94;47.56;98809.63;5014111;28;20236;-86
2022/02/27 00:53:33;;;;;;;2.60;2.27;;;;;;;17.80;47.18;98788.41;5007204;28;20201;-87
2022/02/27 00:56:00;;;;;;;4.13;2.57;;;;;;;18.16;47.52;98849.28;5025779;28;20227;-84
2022/02/27 00:58:26;;;;;;;3.90;2.67;;;;;;;17.79;47.30;98780.69;5016430;28;20217;-86
2022/02/27 01:00:53;;;;;;;4.07;2.40;;;;;;;18.02;47.09;98813.53;5020064;28;20637;-86
2022/02/27 01:03:20;;;;;;;3.87;2.70;;;;;;;17.63;47.19;98752.53;5009308;28;20589;-85
2022/02/27 01:05:46;;;;;;;3.03;2.30;;;;;;;18.02;47.37;98823.72;5016036;28;20205;-86
2022/02/27 01:08:13;;;;;;;2.90;2.17;;;;;;;18.12;47.18;98839.66;5013701;28;20218;-85
2022/02/27 01:10:40;;;;;;;3.43;2.43;;;;;;;18.16;46.92;98849.28;4997117;28;20570;-87
2022/02/27 01:13:06;;;;;;;3.17;2.33;;;;;;;18.09;47.15;98829.28;5006458;28;20232;-86
2022/02/27 01:15:35;;;;;;;3.37;2.30;;;;;;;16.61;47.23;98580.69;5036172;28;20280;-90
2022/02/27 01:39:34;;;;;;;3.33;2.37;;;;;;;17.73;46.89;98767.56;5235393;22;20228;-87
2022/02/27 01:42:00;;;;;;;3.07;2.30;;;;;;;17.54;47.31;98735.03;5045818;28;20209;-78
2022/02/27 01:44:27;;;;;;;2.43;2.13;;;;;;;17.62;47.45;98743.16;5065253;28;20228;-80
2022/02/27 01:47:02;;;;;;;2.60;2.13;;;;;;;17.02;47.07;98640.13;5049598;28;20244;-87
2022/02/27 01:49:29;;;;;;;3.17;2.30;;;;;;;16.63;47.12;98567.31;5015255;28;20302;-87
2022/02/27 01:51:59;;;;;;;3.17;2.30;;;;;;;18.31;46.99;98862.06;5032685;28;20229;-87
2022/02/27 01:54:25;;;;;;;3.87;2.30;;;;;;;17.74;47.12;98765.13;5063407;28;20283;-86
2022/02/27 01:56:52;;;;;;;4.40;2.23;;;;;;;14.41;47.17;98173.22;5051109;28;20232;-86
2022/02/27 01:59:19;;;;;;;2.77;2.20;;;;;;;18.34;46.94;98863.91;5015123;28;20229;-87
2022/02/27 02:01:45;;;;;;;3.17;2.73;;;;;;;18.35;47.27;98865.69;5038497;28;20235;-87
2022/02/27 02:04:12;;;;;;;2.57;1.93;;;;;;;16.11;46.97;98471.69;5042547;28;20268;-88
2022/02/27 02:06:39;;;;;;;2.93;2.60;;;;;;;18.35;47.35;98865.69;5032567;28;20229;-87
2022/02/27 02:09:06;;;;;;;4.03;2.47;;;;;;;17.54;46.79;98713.81;5017567;28;20261;-87
2022/02/27 02:11:33;;;;;;;2.80;2.30;;;;;;;16.56;46.99;98546.53;5018111;28;20229;-86
2022/02/27 02:14:02;;;;;;;2.70;2.33;;;;;;;17.73;47.09;98750.66;5033880;28;20683;-87
2022/02/27 02:16:47;;;;;;;3.83;2.33;;;;;;;18.41;46.83;98952.66;5017964;28;20581;-85
2022/02/27 02:19:14;;;;;;;2.80;2.03;;;;;;;17.51;46.94;98701.81;5018543;28;20217;-86
2022/02/27 02:21:42;;;;;;;2.83;2.33;;;;;;;18.42;47.19;98857.69;5033252;28;20240;-86
2022/02/27 02:24:08;;;;;;;3.10;2.30;;;;;;;17.51;46.74;98696.72;5034067;28;20214;-87
2022/02/27 02:26:37;;;;;;;4.30;2.53;;;;;;;15.89;46.41;98417.84;5017831;28;20206;-86
2022/02/27 02:29:08;;;;;;;3.53;2.13;;;;;;;18.45;46.73;98848.59;5001654;28;20261;-87
2022/02/27 02:31:35;;;;;;;3.80;2.40;;;;;;;16.00;46.71;98471.78;5035148;28;20554;-86
2022/02/27 02:34:12;;;;;;;3.03;2.20;;;;;;;16.90;46.68;98576.69;5017891;28;20255;-87
2022/02/27 02:36:39;;;;;;;3.73;2.47;;;;;;;16.54;46.65;98500.75;5000407;28;20236;-88
2022/02/27 02:39:08;;;;;;;3.33;2.40;;;;;;;16.35;46.51;98513.88;5017309;28;20309;-86
2022/02/27 02:41:34;;;;;;;3.37;2.37;;;;;;;14.15;46.61;98102.34;5000912;28;20580;-87
2022/02/27 02:44:01;;;;;;;2.93;2.33;;;;;;;18.51;46.65;98843.88;5033590;28;20236;-85
2022/02/27 02:46:29;;;;;;;2.93;2.10;;;;;;;16.39;46.51;98471.81;5032528;28;20711;-81
2022/02/27 02:48:56;;;;;;;2.73;2.10;;;;;;;18.53;46.47;98836.31;5032201;28;20232;-80
2022/02/27 02:51:23;;;;;;;3.37;2.37;;;;;;;18.52;46.55;98845.63;5031340;28;20197;-80
2022/02/27 02:53:49;;;;;;;3.10;2.30;;;;;;;17.99;46.18;98750.66;5031014;28;20650;-80
2022/02/27 02:56:16;;;;;;;2.90;2.27;;;;;;;16.67;46.77;98556.56;5014478;28;20202;-81
2022/02/27 02:58:43;;;;;;;2.60;2.13;;;;;;;17.81;46.54;98713.91;4998214;28;20276;-81
2022/02/27 03:01:11;;;;;;;2.67;2.03;;;;;;;17.85;46.25;98712.41;5031160;28;20197;-80
2022/02/27 03:03:39;;;;;;;2.90;2.37;;;;;;;18.56;46.56;98844.16;5032257;28;20201;-81
2022/02/27 03:06:11;;;;;;;3.17;2.03;;;;;;;18.55;46.68;98838.16;5051977;28;20204;-80
2022/02/27 03:08:38;;;;;;;2.37;2.13;;;;;;;18.10;46.56;98762.38;5050990;28;20291;-80
2022/02/27 03:11:05;;;;;;;2.40;2.20;;;;;;;17.87;46.34;98723.56;5034042;28;20225;-80
2022/02/27 03:13:32;;;;;;;2.40;2.20;;;;;;;18.26;46.51;98809.13;5050871;28;20296;-79
2022/02/27 03:15:58;;;;;;;2.57;2.30;;;;;;;18.54;46.28;98838.97;5034169;28;20200;-80
2022/02/27 03:18:25;;;;;;;2.93;2.33;;;;;;;17.94;46.45;98724.03;5051880;28;20225;-81
2022/02/27 03:20:56;;;;;;;3.07;2.10;;;;;;;18.47;46.53;98813.03;5049949;28;20231;-79
2022/02/27 03:23:22;;;;;;;4.20;2.43;;;;;;;18.53;46.49;98821.91;5050827;28;20228;-80
2022/02/27 03:25:49;;;;;;;3.27;2.33;;;;;;;16.67;46.73;98505.81;5050285;28;20204;-80
2022/02/27 03:28:16;;;;;;;3.20;2.43;;;;;;;16.84;46.56;98553.47;5051854;28;20448;-80
2022/02/27 03:30:42;;;;;;;2.50;2.20;;;;;;;18.28;46.24;98780.44;5050306;28;20456;-80
2022/02/27 03:33:09;;;;;;;2.70;2.30;;;;;;;18.50;46.33;98824.25;5050171;28;20209;-80
2022/02/27 03:35:35;;;;;;;2.90;2.30;;;;;;;18.48;46.70;98828.41;5050281;28;20244;-80
2022/02/27 03:38:03;;;;;;;2.67;2.23;;;;;;;18.48;46.63;98836.03;5050122;28;20298;-78
2022/02/27 03:40:29;;;;;;;3.07;2.23;;;;;;;17.77;46.24;98704.31;5049822;28;20618;-80
2022/02/27 03:42:56;;;;;;;2.33;2.13;;;;;;;18.17;46.72;98783.97;5019146;28;20229;-80
2022/02/27 03:45:22;;;;;;;2.53;2.23;;;;;;;16.94;46.40;98562.56;5033912;28;20225;-78
2022/02/27 03:47:49;;;;;;;3.10;2.60;;;;;;;17.09;46.78;98594.88;5031067;28;20718;-79
2022/02/27 03:50:16;;;;;;;2.80;2.30;;;;;;;17.62;46.55;98689.78;4997349;28;20305;-80
2022/02/27 03:52:43;;;;;;;2.00;1.90;;;;;;;15.49;46.67;98387.25;4998222;28;20209;-87
2022/02/27 03:55:14;;;;;;;2.30;2.10;;;;;;;18.33;46.48;98813.81;5015301;28;20233;-89
2022/02/27 03:57:41;;;;;;;2.30;2.10;;;;;;;17.60;46.57;98678.63;5031763;28;20236;-86
2022/02/27 04:00:10;;;;;;;2.70;2.23;;;;;;;17.26;46.77;98627.28;4999389;28;20244;-87
2022/02/27 04:02:36;;;;;;;3.53;2.47;;;;;;;18.40;46.66;98828.69;5031996;28;20205;-88
2022/02/27 04:05:04;;;;;;;3.13;2.20;;;;;;;15.50;46.70;98356.06;5046302;28;20616;-87
2022/02/27 04:07:30;;;;;;;2.70;2.50;;;;;;;18.05;46.73;98803.56;5035429;28;20273;-87
2022/02/27 04:09:57;;;;;;;2.57;2.30;;;;;;;18.38;46.37;98818.41;5034567;28;20232;-85
2022/02/27 04:12:23;;;;;;;2.70;2.40;;;;;;;15.74;46.52;98358.56;5051163;28;20580;-88
2022/02/27 04:14:50;;;;;;;2.37;2.10;;;;;;;10.59;46.70;97536.25;5051775;28;20650;-87
2022/02/27 04:17:17;;;;;;;2.53;2.30;;;;;;;10.80;46.39;97640.81;5046611;28;20209;-88
2022/02/27 04:19:43;;;;;;;3.23;2.40;;;;;;;12.13;46.57;97730.09;5035955;28;20737;-88
2022/02/27 04:22:11;;;;;;;2.43;2.23;;;;;;;13.55;46.65;97977.84;4998697;28;20205;-88
2022/02/27 04:24:37;;;;;;;2.83;2.40;;;;;;;18.38;46.52;98828.59;5015219;28;20228;-88
2022/02/27 04:27:04;;;;;;;3.17;2.30;;;;;;;17.64;46.77;98695.81;5032780;28;20694;-88
2022/02/27 04:29:31;;;;;;;2.80;2.50;;;;;;;17.11;46.90;98640.69;4999506;28;20264;-87
2022/02/27 04:31:57;;;;;;;2.77;2.50;;;;;;;18.40;46.43;98826.16;5030397;28;20670;-79
2022/02/27 04:34:26;;;;;;;3.07;2.47;;;;;;;18.41;46.56;98818.59;5030477;28;20618;-79
2022/02/27 04:36:53;;;;;;;3.00;2.43;;;;;;;17.35;46.33;98627.88;5029480;28;20225;-81
2022/02/27 04:39:19;;;;;;;2.87;2.20;;;;;;;18.43;46.73;98813.63;5012525;28;20225;-79
2022/02/27 04:41:46;;;;;;;3.00;2.30;;;;;;;18.44;46.47;98815.41;5029037;28;20252;-80
2022/02/27 04:44:12;;;;;;;3.03;2.30;;;;;;;18.07;46.48;98757.09;5030405;28;20229;-79
2022/02/27 04:46:39;;;;;;;2.93;2.60;;;;;;;18.44;46.46;98820.47;5030735;28;20611;-81
2022/02/27 04:49:06;;;;;;;3.10;2.40;;;;;;;18.45;46.37;98823.13;5043500;28;20265;-79
2022/02/27 04:51:32;;;;;;;3.83;2.53;;;;;;;17.19;46.43;98599.75;5033585;28;20284;-79
2022/02/27 04:53:59;;;;;;;3.03;2.70;;;;;;;18.13;46.71;98770.19;5029103;28;20240;-77
2022/02/27 04:56:25;;;;;;;2.60;2.30;;;;;;;17.81;46.43;98721.53;5012576;28;20292;-79
2022/02/27 04:58:52;;;;;;;2.43;2.20;;;;;;;18.45;46.45;98830.75;4996160;28;20273;-81
2022/02/27 05:01:19;;;;;;;2.57;2.27;;;;;;;18.12;46.04;98775.19;5035615;28;20225;-78
2022/02/27 05:03:45;;;;;;;2.50;2.30;;;;;;;18.46;46.26;98826.53;5042701;28;20189;-79
2022/02/27 05:06:14;;;;;;;2.80;2.40;;;;;;;17.24;46.30;98623.78;5048669;28;20284;-80
2022/02/27 05:08:41;;;;;;;2.70;2.50;;;;;;;18.24;46.02;98792.09;5016826;28;20224;-80
2022/02/27 05:11:07;;;;;;;3.27;2.40;;;;;;;17.51;46.46;98671.31;5048639;28;20269;-80
2022/02/27 05:13:34;;;;;;;2.60;2.33;;;;;;;17.25;46.09;98611.94;5032304;28;20283;-80
2022/02/27 05:16:00;;;;;;;2.50;2.30;;;;;;;18.10;46.45;98771.66;5048870;28;20763;-80
2022/02/27 05:18:27;;;;;;;2.30;2.10;;;;;;;18.10;46.43;98776.75;5048538;28;20762;-80
2022/02/27 05:20:54;;;;;;;2.40;2.13;;;;;;;18.44;46.55;98838.31;5032044;28;20250;-80
2022/02/27 05:23:20;;;;;;;2.50;2.30;;;;;;;13.28;46.54;97947.31;5050059;28;20224;-80
2022/02/27 05:25:47;;;;;;;3.43;2.70;;;;;;;14.88;46.16;98216.84;5024900;28;20283;-80
2022/02/27 05:28:13;;;;;;;2.60;2.20;;;;;;;15.65;46.44;98365.56;5034320;28;20220;-79
2022/02/27 05:30:40;;;;;;;3.03;2.43;;;;;;;16.99;46.85;98599.28;5043608;28;20248;-80
2022/02/27 05:33:06;;;;;;;4.27;2.40;;;;;;;15.69;46.37;98387.78;5050055;28;20666;-81
2022/02/27 05:35:33;;;;;;;3.33;2.63;;;;;;;18.39;46.23;98858.38;5016272;28;20670;-81
2022/02/27 05:38:00;;;;;;;3.10;2.50;;;;;;;17.90;46.39;98767.00;5050723;28;20323;-79
2022/02/27 05:40:26;;;;;;;2.60;2.40;;;;;;;18.37;46.37;98859.94;5031978;28;20245;-80
2022/02/27 05:42:53;;;;;;;2.87;2.57;;;;;;;15.80;46.84;98414.72;5049017;28;20300;-81
2022/02/27 05:45:19;;;;;;;3.43;2.53;;;;;;;18.03;46.56;98807.69;5031863;28;20292;-79
2022/02/27 05:47:48;;;;;;;3.87;2.40;;;;;;;18.06;46.61;98843.50;5032497;28;20963;-80
2022/02/27 05:50:15;;;;;;;3.13;2.60;;;;;;;16.29;46.87;98510.06;5031783;28;20221;-80
2022/02/27 05:52:41;;;;;;;2.80;2.23;;;;;;;17.47;46.80;98719.31;5048721;28;20304;-81
2022/02/27 05:55:08;;;;;;;2.87;2.57;;;;;;;18.03;46.72;98818.72;5048602;28;20211;-80
2022/02/27 05:57:35;;;;;;;3.17;2.53;;;;;;;17.74;46.74;98769.34;5048035;28;20244;-81
2022/02/27 06:00:02;;;;;;;2.70;2.23;;;;;;;17.98;46.86;98815.03;5015350;28;20296;-80
2022/02/27 06:02:29;;;;;;;2.30;2.10;;;;;;;17.37;46.56;98704.19;5031748;28;20713;-80
2022/02/27 06:05:00;;;;;;;3.63;2.33;;;;;;;17.55;46.63;98743.53;5020308;28;20289;-81
2022/02/27 06:07:26;;;;;;;2.90;2.60;;;;;;;17.72;46.68;98776.88;5011994;28;20205;-81
2022/02/27 06:09:54;;;;;;;4.23;2.53;;;;;;;18.33;46.96;98885.06;5012323;28;20256;-81
2022/02/27 06:12:21;;;;;;;2.47;2.27;;;;;;;17.77;47.08;98795.84;5031882;28;20429;-81
2022/02/27 06:14:47;;;;;;;3.77;2.73;;;;;;;16.61;46.89;98585.78;5015631;28;20275;-80
2022/02/27 06:17:14;;;;;;;3.03;2.60;;;;;;;17.37;46.78;98727.94;5015739;28;20229;-80
2022/02/27 06:19:40;;;;;;;2.90;2.40;;;;;;;17.28;46.74;98708.69;5018536;28;20299;-80
2022/02/27 06:22:07;;;;;;;3.33;2.50;;;;;;;16.22;46.81;98529.06;5037703;28;20653;-81
2022/02/27 06:24:34;;;;;;;3.17;2.87;;;;;;;18.19;46.84;98874.00;5042233;28;20292;-80
2022/02/27 06:27:00;;;;;;;2.80;2.47;;;;;;;17.41;46.88;98745.16;5052906;28;20313;-80
2022/02/27 06:29:27;;;;;;;3.20;2.90;;;;;;;16.10;46.78;98510.50;5035027;28;20271;-80
2022/02/27 06:31:53;;;;;;;3.70;2.90;;;;;;;15.92;46.91;98488.13;5051475;28;20295;-80
2022/02/27 06:34:20;;;;;;;3.47;2.77;;;;;;;17.50;46.89;98765.25;5018841;28;20288;-81
2022/02/27 06:36:47;;;;;;;3.13;2.80;;;;;;;17.45;46.66;98759.88;5045176;28;20287;-81
2022/02/27 06:39:13;;;;;;;4.10;3.10;;;;;;;17.77;46.94;98826.34;5018156;28;20244;-80
2022/02/27 06:41:40;;;;;;;3.97;2.97;;;;;;;16.68;46.44;98634.50;5031711;28;20292;-82
2022/02/27 06:44:06;;;;;;;3.20;2.90;;;;;;;11.89;46.69;97786.31;5051546;28;20296;-81
2022/02/27 06:46:33;;;;;;;3.37;3.07;;;;;;;17.12;46.57;98713.56;5032023;28;20255;-81
2022/02/27 06:49:00;;;;;;;3.17;2.83;;;;;;;18.27;46.74;98922.84;5028645;28;20278;-80
2022/02/27 06:51:26;;;;;;;3.17;2.80;;;;;;;17.15;46.87;98739.16;5050602;28;20658;-82
2022/02/27 06:53:53;;;;;;;4.03;2.97;;;;;;;18.26;46.47;98916.88;5022930;28;20285;-80
2022/02/27 06:56:19;;;;;;;4.83;3.63;;;;;;;17.31;46.73;98752.06;5031140;28;20233;-81
2022/02/27 06:58:46;;;;;;;4.03;3.13;;;;;;;15.73;46.59;98492.78;4998335;28;20718;-79
2022/02/27 07:01:13;;;;;;;3.23;2.93;;;;;;;17.08;46.66;98716.69;5000842;28;20225;-80
2022/02/27 07:03:40;;;;;;;3.83;3.23;;;;;;;17.60;46.50;98803.16;5021606;28;20198;-79
2022/02/27 07:06:07;;;;;;;3.63;3.20;;;;;;;18.25;46.64;98927.84;5014338;28;20205;-80
2022/02/27 07:08:34;;;;;;;3.80;3.30;;;;;;;17.08;47.01;98729.41;5049346;28;20259;-82
2022/02/27 07:11:02;;;;;;;3.83;3.10;;;;;;;17.37;46.63;98777.88;5051414;28;20255;-81
2022/02/27 07:13:30;;;;;;;3.50;3.20;;;;;;;17.09;46.73;98726.06;5019229;28;20228;-81
2022/02/27 07:15:57;;;;;;;3.60;3.00;;;;;;;16.51;46.55;98637.56;5034950;28;20209;-81
2022/02/27 07:18:23;;;;;;;3.67;2.73;;;;;;;16.09;46.54;98559.47;5034756;28;20307;-81
2022/02/27 07:20:50;;;;;;;3.40;3.10;;;;;;;17.90;47.08;98924.66;5035911;28;20284;-89
2022/02/27 07:23:16;;;;;;;4.17;2.87;;;;;;;17.25;46.82;98784.69;5019735;28;20300;-88
2022/02/27 07:25:43;;;;;;;3.20;2.77;;;;;;;16.36;46.96;98632.34;5038189;28;20225;-87
2022/02/27 07:28:10;;;;;;;3.33;2.70;;;;;;;11.67;46.70;97835.91;5028115;28;20249;-88
2022/02/27 07:30:36;;;;;;;3.63;3.10;;;;;;;14.51;47.12;98313.03;5030947;28;20240;-87
2022/02/27 07:33:03;;;;;;;3.40;3.10;;;;;;;16.62;47.13;98696.66;5021215;28;20202;-90
2022/02/27 07:35:30;;;;;;;3.70;3.20;;;;;;;13.47;46.99;98228.88;5036878;28;20205;-88
2022/02/27 07:43:21;;;;;;;3.37;2.90;;;;;;;17.10;46.71;98769.34;5357675;22;20223;-87
2022/02/27 07:45:49;;;;;;;4.03;3.00;;;;;;;17.58;46.91;98861.53;5090941;28;20696;-87
2022/02/27 07:48:15;;;;;;;3.53;2.80;;;;;;;17.70;46.47;98875.06;5071166;28;20195;-87
2022/02/27 07:50:42;;;;;;;3.80;3.00;;;;;;;17.67;46.46;98866.34;5054346;28;20434;-87
2022/02/27 07:53:08;;;;;;;3.33;2.80;;;;;;;18.03;46.82;98923.03;5071177;28;20234;-87
2022/02/27 07:55:35;;;;;;;3.30;2.80;;;;;;;16.84;46.44;98727.78;5071298;28;20272;-87
2022/02/27 07:58:02;;;;;;;4.20;2.97;;;;;;;17.52;46.90;98838.25;5070698;28;20208;-87
2022/02/27 08:00:29;;;;;;;3.60;2.97;;;;;;;17.58;46.64;98847.94;5071049;28;20290;-87
2022/02/27 08:02:55;;;;;;;3.53;2.87;;;;;;;17.17;46.82;98780.81;5071296;28;20211;-88
2022/02/27 08:05:22;;;;;;;3.27;2.67;;;;;;;16.93;46.76;98751.25;5038144;28;20212;-87
2022/02/27 08:07:49;;;;;;;3.27;2.83;;;;;;;17.46;46.96;98830.22;5054457;28;20204;-88
2022/02/27 08:10:15;;;;;;;3.63;2.80;;;;;;;16.34;46.72;98633.00;5037088;28;20260;-86
2022/02/27 08:12:46;;;;;;;4.13;3.20;;;;;;;17.61;46.71;98853.22;5037417;28;20240;-86
2022/02/27 08:15:14;;;;;;;3.23;2.77;;;;;;;17.65;46.79;98901.81;5053608;28;20299;-87
2022/02/27 08:17:41;;;;;;;2.97;2.67;;;;;;;17.82;46.82;98891.09;5054425;28;20303;-87
2022/02/27 08:20:08;;;;;;;3.60;2.83;;;;;;;18.30;46.70;98986.66;5038460;28;20220;-88
2022/02/27 08:22:36;;;;;;;3.33;2.60;;;;;;;17.47;46.87;98828.59;5054782;28;20200;-88
2022/02/27 08:25:05;;;;;;;3.53;3.10;;;;;;;17.87;46.62;98914.28;5038050;28;20253;-86
2022/02/27 08:27:34;;;;;;;3.90;3.20;;;;;;;17.17;46.11;98783.34;5053985;28;20202;-87
2022/02/27 08:30:00;;;;;;;2.73;2.50;;;;;;;17.36;46.38;98821.88;5054422;28;20216;-87
2022/02/27 08:32:27;;;;;;;4.57;3.07;;;;;;;17.63;46.34;98857.66;5054171;28;20224;-88
2022/02/27 08:34:53;;;;;;;3.00;2.70;;;;;;;17.89;46.61;98908.50;5053745;28;20653;-88
2022/02/27 08:37:20;;;;;;;4.60;3.37;;;;;;;17.70;46.50;98874.16;5053953;28;20247;-87
2022/02/27 08:39:46;;;;;;;3.83;2.77;;;;;;;17.13;46.37;98781.34;5036937;28;20735;-87
2022/02/27 08:42:14;;;;;;;4.10;3.00;;;;;;;17.79;46.92;98903.63;5036438;28;20207;-88
2022/02/27 08:44:40;;;;;;;4.10;2.93;;;;;;;17.88;46.24;98910.97;5037524;28;20628;-87
2022/02/27 08:47:07;;;;;;;3.47;2.60;;;;;;;17.65;46.49;98878.94;5037578;28;20226;-86
2022/02/27 08:49:34;;;;;;;4.20;2.90;;;;;;;17.17;46.55;98779.13;5036124;28;20694;-88
2022/02/27 08:52:01;;;;;;;2.77;2.53;;;;;;;16.11;46.68;98610.31;5029531;28;20302;-88
2022/02/27 08:54:28;;;;;;;3.10;2.80;;;;;;;18.26;46.66;98985.56;5054744;28;20210;-87
2022/02/27 08:56:54;;;;;;;3.17;2.70;;;;;;;16.69;46.63;98721.69;5070833;28;20223;-88
2022/02/27 08:59:21;;;;;;;3.90;3.00;;;;;;;17.52;46.54;98855.16;5053866;28;20259;-88
2022/02/27 09:01:48;;;;;;;3.10;2.80;;;;;;;17.28;46.86;98821.38;5054345;28;20235;-88
2022/02/27 09:04:14;;;;;;;2.97;2.50;;;;;;;17.81;46.85;98908.81;5054317;28;20207;-87
2022/02/27 09:06:41;;;;;;;3.20;2.90;;;;;;;18.00;46.72;98948.25;5054277;28;20199;-87
2022/02/27 09:09:08;;;;;;;3.13;2.83;;;;;;;17.12;46.78;98805.91;5037892;28;20248;-85
2022/02/27 09:11:34;;;;;;;3.77;2.73;;;;;;;15.90;46.87;98576.75;5037395;28;20252;-87
2022/02/27 09:14:01;;;;;;;2.80;2.60;;;;;;;17.92;46.82;98946.88;5037634;28;20283;-87
2022/02/27 09:16:27;;;;;;;3.20;2.70;;;;;;;17.60;46.80;98869.25;5054534;28;20249;-87
2022/02/27 09:18:55;;;;;;;2.97;2.67;;;;;;;16.87;46.76;98764.38;5054523;28;20224;-87
2022/02/27 09:21:21;;;;;;;3.07;2.70;;;;;;;17.44;46.43;98874.13;5037557;28;20228;-87
2022/02/27 09:23:48;;;;;;;2.90;2.70;;;;;;;18.25;46.65;98973.66;5038188;28;20212;-88
2022/02/27 09:26:15;;;;;;;3.10;2.70;;;;;;;17.09;46.16;98766.69;5037713;28;20239;-88
2022/02/27 09:28:55;;;;;;;3.03;2.53;;;;;;;17.46;46.78;98837.84;5055962;28;20216;-87
2022/02/27 09:31:22;;;;;;;3.37;2.80;;;;;;;17.73;46.41;98876.91;5036952;28;20307;-87
2022/02/27 09:33:48;;;;;;;3.47;2.67;;;;;;;17.96;46.49;98925.06;5037343;28;20272;-88
2022/02/27 09:36:15;;;;;;;3.70;3.00;;;;;;;17.50;46.44;98867.75;5037499;28;20200;-88
2022/02/27 09:38:42;;;;;;;3.20;2.90;;;;;;;17.77;47.00;98897.53;5037366;28;20311;-87
2022/02/27 09:41:08;;;;;;;3.57;3.10;;;;;;;17.81;46.58;98901.19;5037115;28;20227;-87
2022/02/27 09:43:36;;;;;;;2.93;2.70;;;;;;;18.24;46.50;98964.25;5036757;28;20299;-87
2022/02/27 09:46:03;;;;;;;2.87;2.57;;;;;;;17.52;46.76;98842.44;5039445;28;20303;-88
2022/02/27 09:48:29;;;;;;;3.23;2.70;;;;;;;17.26;46.63;98800.06;5041249;28;20631;-88
2022/02/27 09:50:56;;;;;;;3.17;2.87;;;;;;;17.77;47.01;98896.69;5057223;28;20307;-87
2022/02/27 09:53:23;;;;;;;3.03;2.67;;;;;;;17.74;46.40;98876.16;5040905;28;20224;-88
2022/02/27 09:55:50;;;;;;;2.90;2.60;;;;;;;17.35;46.91;98815.03;5057184;28;20758;-89
2022/02/27 09:58:16;;;;;;;2.73;2.40;;;;;;;17.78;46.63;98886.63;5041130;28;20661;-88
2022/02/27 10:00:43;;;;;;;2.97;2.67;;;;;;;16.68;46.87;98697.94;5057517;28;20283;-89
2022/02/27 10:03:11;;;;;;;2.70;2.50;;;;;;;17.50;46.91;98849.97;5041175;28;20199;-87
2022/02/27 10:05:46;;;;;;;2.63;2.43;;;;;;;17.76;46.84;98878.00;5057506;28;20204;-88
2022/02/27 10:08:14;;;;;;;2.80;2.50;;;;;;;17.32;46.45;98822.47;5057444;28;20655;-87
2022/02/27 10:10:57;;;;;;;2.97;2.50;;;;;;;17.79;46.46;98885.81;5057032;28;20261;-88
2022/02/27 10:13:32;;;;;;;3.70;2.67;;;;;;;17.87;46.54;98888.88;5054707;28;20643;-88
2022/02/27 10:16:08;;;;;;;2.70;2.30;;;;;;;17.54;46.75;98836.72;5041098;28;20216;-88
2022/02/27 10:18:39;;;;;;;2.97;2.57;;;;;;;17.80;46.31;98876.53;5056454;28;20223;-89
2022/02/27 10:21:20;;;;;;;3.10;2.50;;;;;;;18.21;46.54;98944.56;5040908;28;20189;-87
2022/02/27 10:24:08;;;;;;;2.50;2.30;;;;;;;18.01;46.63;98944.06;5072255;28;20207;-88
2022/02/27 10:26:36;;;;;;;3.07;2.73;;;;;;;17.68;46.48;98865.56;5056751;28;20288;-88
2022/02/27 10:29:11;;;;;;;3.00;2.60;;;;;;;17.32;46.43;98810.63;5056527;28;20285;-88
2022/02/27 10:31:39;;;;;;;3.27;2.70;;;;;;;17.56;46.54;98839.34;5056585;28;20306;-88
2022/02/27 10:34:27;;;;;;;2.97;2.57;;;;;;;18.21;46.86;98948.78;5056542;28;20727;-90
2022/02/27 10:36:58;;;;;;;3.30;3.00;;;;;;;17.14;46.41;98778.91;5056924;28;20246;-90
2022/02/27 10:39:55;;;;;;;3.20;2.90;;;;;;;18.19;46.60;98937.63;5057149;28;20245;-89
2022/02/27 10:42:22;;;;;;;3.20;2.90;;;;;;;18.18;46.52;98940.97;5040034;28;20629;-89
2022/02/27 10:44:58;;;;;;;3.37;2.90;;;;;;;16.22;46.41;98594.13;5073225;28;20235;-87
2022/02/27 10:47:31;;;;;;;4.47;3.40;;;;;;;18.19;46.84;98943.59;5056108;28;20208;-89
2022/02/27 10:49:59;;;;;;;3.30;3.00;;;;;;;16.23;46.72;98613.66;5073229;28;20212;-88
2022/02/27 10:52:29;;;;;;;3.63;2.90;;;;;;;16.95;46.54;98721.72;5041184;28;20220;-88
2022/02/27 10:55:06;;;;;;;3.30;3.00;;;;;;;15.63;46.52;98488.72;5041280;28;20219;-84
2022/02/27 10:57:37;;;;;;;3.20;2.90;;;;;;;17.47;46.66;98814.19;5055934;28;20199;-86
2022/02/27 11:00:17;;;;;;;3.70;3.23;;;;;;;18.20;46.31;98926.66;5039856;28;20688;-87
2022/02/27 11:02:57;;;;;;;4.13;3.03;;;;;;;17.43;46.72;98797.00;5072436;28;20200;-87
2022/02/27 11:05:31;;;;;;;3.33;2.83;;;;;;;18.00;46.40;98889.75;5042639;28;20200;-87
2022/02/27 11:08:00;;;;;;;3.50;2.80;;;;;;;16.10;46.32;98568.84;5057042;28;20196;-87
2022/02/27 11:10:30;;;;;;;3.60;3.30;;;;;;;16.22;46.45;98561.16;5056724;28;20253;-85
2022/02/27 11:12:57;;;;;;;3.03;2.60;;;;;;;16.88;46.64;98673.88;5040250;28;20251;-86
2022/02/27 11:15:26;;;;;;;2.93;2.70;;;;;;;16.93;46.24;98693.69;5057091;28;20243;-88
2022/02/27 11:17:54;;;;;;;3.67;3.07;;;;;;;17.28;46.67;98749.34;5040514;28;20208;-87
2022/02/27 11:20:21;;;;;;;3.20;2.87;;;;;;;17.70;46.72;98823.31;5033620;28;20220;-85
2022/02/27 11:22:49;;;;;;;3.03;2.70;;;;;;;14.31;46.18;98227.38;5038252;28;20205;-84
2022/02/27 11:25:16;;;;;;;3.30;3.00;;;;;;;17.31;46.36;98760.59;5056526;28;20212;-84
2022/02/27 11:28:04;;;;;;;3.07;2.70;;;;;;;18.17;46.39;98898.47;5047056;28;20200;-85
2022/02/27 11:30:35;;;;;;;4.87;3.03;;;;;;;16.54;46.71;98609.84;5073639;28;20245;-84
2022/02/27 11:33:14;;;;;;;3.47;3.17;;;;;;;16.04;46.42;98514.28;5056671;28;20295;-84
2022/02/27 11:35:49;;;;;;;4.40;3.40;;;;;;;18.18;46.17;98890.94;5056085;28;20204;-84
2022/02/27 11:38:37;;;;;;;4.17;3.23;;;;;;;17.85;46.70;98830.28;5055970;28;20207;-84
2022/02/27 11:41:17;;;;;;;3.57;3.10;;;;;;;17.15;46.34;98726.47;5069656;28;20252;-82
2022/02/27 11:43:51;;;;;;;4.93;3.57;;;;;;;16.36;46.51;98595.94;5055060;28;20212;-85
2022/02/27 11:46:31;;;;;;;3.70;3.20;;;;;;;17.40;46.29;98737.44;5055877;28;20199;-85
2022/02/27 11:49:02;;;;;;;3.97;3.17;;;;;;;16.89;46.15;98646.03;5071625;28;20212;-84
2022/02/27 11:51:38;;;;;;;3.80;3.33;;;;;;;18.18;46.44;98878.22;5054708;28;20316;-85
2022/02/27 11:54:05;;;;;;;3.43;3.07;;;;;;;15.45;45.93;98395.44;5071563;28;20419;-85
2022/02/27 11:56:31;;;;;;;3.47;3.00;;;;;;;16.25;46.19;98534.34;5071408;28;20203;-85
2022/02/27 11:58:58;;;;;;;4.07;3.37;;;;;;;16.76;46.36;98640.97;5054651;28;20208;-86
2022/02/27 12:01:37;;;;;;;3.90;3.07;;;;;;;18.19;46.37;98863.84;5071274;28;20200;-85
2022/02/27 12:04:24;;;;;;;3.13;2.83;;;;;;;17.90;46.35;98828.91;5071974;28;20292;-85
2022/02/27 12:07:03;;;;;;;3.40;3.10;;;;;;;16.98;46.23;98664.41;5054958;28;20188;-85
2022/02/27 12:09:48;;;;;;;3.43;3.13;;;;;;;18.17;46.48;98866.28;5071084;28;20223;-83
2022/02/27 12:12:51;;;;;;;4.90;3.57;;;;;;;18.19;46.38;98868.94;5071092;28;20220;-85
2022/02/27 12:15:24;;;;;;;3.40;3.10;;;;;;;18.17;46.27;98865.38;5054895;28;20212;-85
2022/02/27 12:17:57;;;;;;;4.00;3.33;;;;;;;18.17;46.35;98861.19;5071662;28;20250;-83